createdAt,value
2022-09-01T00:00:09.478Z,91.80
2022-09-01T00:02:37.114Z,91.80
2022-09-01T00:05:04.762Z,91.80
2022-09-01T00:07:31.937Z,91.80
2022-09-01T00:10:07.162Z,91.90
2022-09-01T00:12:34.561Z,92.00
2022-09-01T00:15:01.564Z,92.00
2022-09-01T00:17:28.528Z,91.80
2022-09-01T00:19:55.527Z,91.80
2022-09-01T00:22:22.443Z,91.80
2022-09-01T00:24:49.443Z,91.80
2022-09-01T00:27:16.734Z,91.80
2022-09-01T00:29:44.854Z,91.80
2022-09-01T00:32:12.405Z,91.70
2022-09-01T00:34:39.987Z,91.80
2022-09-01T00:37:07.830Z,91.80
2022-09-01T00:39:34.977Z,91.90
2022-09-01T00:42:02.144Z,91.90
2022-09-01T00:44:31.138Z,91.90
2022-09-01T00:46:59.788Z,91.90
2022-09-01T00:49:37.082Z,92.00
2022-09-01T00:52:21.708Z,92.00
2022-09-01T00:54:54.923Z,92.00
2022-09-01T00:57:22.632Z,91.80
2022-09-01T00:59:58.597Z,91.70
2022-09-01T01:02:26.470Z,91.90
2022-09-01T01:04:56.105Z,91.90
2022-09-01T01:07:24.134Z,92.00
2022-09-01T01:09:51.795Z,91.90
2022-09-01T01:12:19.053Z,92.00
2022-09-01T01:14:50.189Z,92.00
2022-09-01T01:17:20.878Z,92.00
2022-09-01T01:20:10.953Z,92.10
2022-09-01T01:23:03.794Z,92.20
2022-09-01T01:25:46.369Z,92.20
2022-09-01T01:28:37.113Z,92.20
2022-09-01T01:31:12.671Z,92.40
2022-09-01T01:33:55.571Z,92.20
2022-09-01T01:36:35.850Z,92.30
2022-09-01T01:39:15.103Z,92.20
2022-09-01T01:41:48.669Z,92.30
2022-09-01T01:44:20.117Z,92.20
2022-09-01T01:46:51.415Z,92.20
2022-09-01T01:49:22.739Z,92.20
2022-09-01T01:51:55.988Z,92.30
2022-09-01T01:54:31.300Z,92.30
2022-09-01T01:57:04.254Z,92.30
2022-09-01T01:59:33.413Z,92.50
2022-09-01T02:02:03.874Z,92.50
2022-09-01T02:04:33.935Z,92.50
2022-09-01T02:07:13.601Z,92.40
2022-09-01T02:09:44.124Z,92.60
2022-09-01T02:12:11.090Z,92.60
2022-09-01T02:14:43.773Z,92.60
2022-09-01T02:17:10.733Z,92.70
2022-09-01T02:19:40.549Z,92.70
2022-09-01T02:22:11.021Z,92.70
2022-09-01T02:24:38.521Z,92.70
2022-09-01T02:27:06.364Z,92.70
2022-09-01T02:29:35.117Z,92.80
2022-09-01T02:32:07.898Z,92.90
2022-09-01T02:34:35.079Z,92.80
2022-09-01T02:37:01.997Z,92.90
2022-09-01T02:39:34.490Z,92.90
2022-09-01T02:42:01.930Z,93.00
2022-09-01T02:44:31.033Z,92.90
2022-09-01T02:46:59.275Z,92.90
2022-09-01T02:49:29.998Z,92.90
2022-09-01T02:52:01.213Z,92.80
2022-09-01T02:54:31.937Z,92.80
2022-09-01T02:56:59.513Z,92.80
2022-09-01T02:59:30.416Z,92.80
2022-09-01T03:02:00.079Z,92.90
2022-09-01T03:04:27.280Z,92.80
2022-09-01T03:06:54.960Z,92.80
2022-09-01T03:09:23.087Z,92.80
2022-09-01T03:11:52.803Z,92.80
2022-09-01T03:14:21.555Z,92.80
2022-09-01T03:16:48.742Z,92.80
2022-09-01T03:19:16.671Z,92.80
2022-09-01T03:21:46.412Z,92.80
2022-09-01T03:24:18.681Z,93.20
2022-09-01T03:26:50.377Z,92.90
2022-09-01T03:29:19.537Z,92.80
2022-09-01T03:31:46.911Z,92.80
2022-09-01T03:34:19.240Z,92.80
2022-09-01T03:36:50.875Z,92.90
2022-09-01T03:39:24.769Z,93.00
2022-09-01T03:41:51.788Z,93.00
2022-09-01T03:44:19.871Z,93.00
2022-09-01T03:46:47.566Z,92.80
2022-09-01T03:49:15.624Z,93.10
2022-09-01T03:51:45.041Z,92.80
2022-09-01T03:54:12.727Z,92.90
2022-09-01T03:56:41.691Z,92.90
2022-09-01T03:59:17.099Z,93.10
2022-09-01T04:01:46.764Z,93.10
2022-09-01T04:04:15.097Z,93.10
2022-09-01T04:06:44.408Z,93.00
2022-09-01T04:09:12.215Z,93.00
2022-09-01T04:11:46.068Z,93.00
2022-09-01T04:14:15.376Z,93.10
2022-09-01T04:17:02.741Z,93.10
2022-09-01T04:19:30.610Z,93.10
2022-09-01T04:22:00.933Z,93.00
2022-09-01T04:24:35.747Z,93.10
2022-09-01T04:27:03.671Z,93.00
2022-09-01T04:29:32.877Z,93.00
2022-09-01T04:32:09.768Z,93.00
2022-09-01T04:34:40.331Z,93.10
2022-09-01T04:37:13.152Z,93.10
2022-09-01T04:39:51.301Z,93.00
2022-09-01T04:42:24.193Z,93.10
2022-09-01T04:44:53.903Z,93.10
2022-09-01T04:47:31.579Z,93.10
2022-09-01T04:50:13.880Z,93.00
2022-09-01T04:52:45.733Z,93.00
2022-09-01T04:55:26.556Z,93.00
2022-09-01T04:57:54.821Z,93.00
2022-09-01T05:00:23.425Z,93.10
2022-09-01T05:03:03.339Z,93.10
2022-09-01T05:05:45.496Z,93.20
2022-09-01T05:08:23.145Z,93.20
2022-09-01T05:10:53.684Z,93.20
2022-09-01T05:13:32.859Z,93.20
2022-09-01T05:16:12.908Z,93.20
2022-09-01T05:18:48.882Z,93.40
2022-09-01T05:21:22.247Z,93.40
2022-09-01T05:23:51.670Z,93.40
2022-09-01T05:26:24.301Z,93.30
2022-09-01T05:28:56.780Z,93.50
2022-09-01T05:31:28.067Z,93.50
2022-09-01T05:33:58.116Z,93.50
2022-09-01T05:36:26.776Z,93.50
2022-09-01T05:38:57.040Z,93.60
2022-09-01T05:41:24.712Z,93.50
2022-09-01T05:43:57.806Z,93.50
2022-09-01T05:46:28.349Z,93.60
2022-09-01T05:48:57.496Z,93.60
2022-09-01T05:51:44.045Z,93.70
2022-09-01T05:54:12.081Z,93.70
2022-09-01T05:56:43.645Z,93.70
2022-09-01T05:59:29.246Z,93.80
2022-09-01T06:02:04.111Z,93.90
2022-09-01T06:04:31.239Z,93.90
2022-09-01T06:07:09.625Z,93.90
2022-09-01T06:09:45.478Z,94.00
2022-09-01T06:12:23.105Z,94.10
2022-09-01T06:14:53.562Z,93.90
2022-09-01T06:17:27.374Z,93.80
2022-09-01T06:19:58.513Z,93.70
2022-09-01T06:22:28.558Z,93.60
2022-09-01T06:25:02.241Z,93.50
2022-09-01T06:27:34.452Z,93.60
2022-09-01T06:30:01.541Z,93.70
2022-09-01T06:32:33.679Z,93.80
2022-09-01T06:35:00.802Z,93.90
2022-09-01T06:37:28.864Z,94.00
2022-09-01T06:40:02.408Z,94.10
2022-09-01T06:42:31.427Z,93.90
2022-09-01T06:45:02.017Z,93.90
2022-09-01T06:47:29.005Z,93.90
2022-09-01T06:49:59.365Z,93.80
2022-09-01T06:52:27.327Z,93.90
2022-09-01T06:54:55.889Z,93.80
2022-09-01T07:00:20.188Z,93.70
2022-09-01T07:02:54.872Z,93.70
2022-09-01T07:06:03.205Z,93.70
2022-09-01T07:12:08.907Z,93.60
2022-09-01T07:17:42.370Z,93.40
2022-09-01T07:20:27.258Z,93.20
2022-09-01T07:23:06.471Z,93.20
2022-09-01T07:26:01.315Z,93.20
2022-09-01T07:28:36.588Z,93.20
2022-09-01T07:34:38.717Z,92.90
2022-09-01T07:39:51.532Z,92.90
2022-09-01T07:45:58.078Z,92.70
2022-09-01T07:48:36.602Z,92.50
2022-09-01T07:51:36.763Z,92.40
2022-09-01T07:54:05.949Z,92.20
2022-09-01T07:56:39.510Z,92.00
2022-09-01T07:59:10.611Z,91.70
2022-09-01T08:01:50.680Z,91.70
2022-09-01T08:04:22.808Z,91.70
2022-09-01T08:06:50.142Z,91.60
2022-09-01T08:09:33.040Z,91.60
2022-09-01T08:12:07.749Z,91.60
2022-09-01T08:14:39.437Z,91.60
2022-09-01T08:19:56.404Z,91.50
2022-09-01T08:22:43.314Z,91.50
2022-09-01T08:25:29.788Z,91.60
2022-09-01T08:28:00.373Z,91.70
2022-09-01T08:30:28.339Z,91.70
2022-09-01T08:32:55.788Z,91.80
2022-09-01T08:35:23.731Z,91.80
2022-09-01T08:37:52.179Z,91.90
2022-09-01T08:40:23.549Z,91.80
2022-09-01T08:43:49.055Z,91.90
2022-09-01T08:46:28.025Z,91.70
2022-09-01T08:52:33.207Z,91.30
2022-09-01T08:55:15.065Z,91.10
2022-09-01T08:57:46.052Z,91.00
2022-09-01T09:00:24.116Z,90.80
2022-09-01T09:03:23.306Z,90.80
2022-09-01T09:06:17.930Z,90.80
2022-09-01T09:09:05.583Z,91.00
2022-09-01T09:12:17.375Z,90.90
2022-09-01T09:14:56.237Z,90.50
2022-09-01T09:17:30.048Z,89.30
2022-09-01T09:19:56.978Z,87.80
2022-09-01T09:22:23.901Z,86.60
2022-09-01T09:25:04.952Z,87.00
2022-09-01T09:27:36.695Z,87.30
2022-09-01T09:30:26.483Z,87.50
2022-09-01T09:35:54.920Z,86.60
2022-09-01T09:38:29.227Z,86.00
2022-09-01T09:41:18.520Z,85.00
2022-09-01T09:44:01.141Z,84.40
2022-09-01T09:46:43.651Z,85.00
2022-09-01T09:49:36.533Z,83.00
2022-09-01T09:52:10.325Z,83.30
2022-09-01T09:55:00.441Z,84.80
2022-09-01T09:57:28.794Z,84.80
2022-09-01T10:00:15.534Z,85.00
2022-09-01T10:02:45.566Z,84.90
2022-09-01T10:05:27.822Z,83.30
2022-09-01T10:07:56.087Z,83.70
2022-09-01T10:10:57.764Z,84.30
2022-09-01T10:13:32.686Z,85.40
2022-09-01T10:16:10.566Z,86.50
2022-09-01T10:18:42.117Z,86.90
2022-09-01T10:21:15.820Z,87.20
2022-09-01T10:23:43.497Z,87.30
2022-09-01T10:26:24.335Z,87.30
2022-09-01T10:29:15.903Z,87.20
2022-09-01T10:31:43.266Z,86.60
2022-09-01T10:34:19.375Z,86.50
2022-09-01T10:36:54.902Z,86.00
2022-09-01T10:39:28.369Z,85.10
2022-09-01T10:42:07.244Z,84.20
2022-09-01T10:44:57.614Z,84.70
2022-09-01T10:47:33.669Z,84.50
2022-09-01T10:50:09.967Z,84.30
2022-09-01T10:52:43.775Z,84.70
2022-09-01T10:55:34.463Z,85.00
2022-09-01T11:01:48.339Z,84.20
2022-09-01T11:04:30.185Z,84.40
2022-09-01T11:07:13.852Z,83.90
2022-09-01T11:09:44.172Z,81.00
2022-09-01T11:12:40.032Z,76.90
2022-09-01T11:15:14.574Z,77.30
2022-09-01T11:17:53.594Z,76.80
2022-09-01T11:20:34.394Z,76.00
2022-09-01T11:23:27.648Z,76.40
2022-09-01T11:26:32.613Z,75.90
2022-09-01T11:28:59.551Z,75.70
2022-09-01T11:31:33.321Z,72.10
2022-09-01T11:34:11.458Z,72.00
2022-09-01T11:36:48.294Z,74.10
2022-09-01T11:39:18.187Z,74.60
2022-09-01T11:42:19.671Z,75.00
2022-09-01T11:44:57.933Z,75.30
2022-09-01T11:47:36.017Z,75.20
2022-09-01T11:50:19.066Z,75.80
2022-09-01T11:53:04.102Z,76.50
2022-09-01T11:55:45.613Z,77.50
2022-09-01T11:58:28.865Z,77.80
2022-09-01T12:01:00.491Z,77.10
2022-09-01T12:03:30.126Z,77.00
2022-09-01T12:06:01.220Z,76.90
2022-09-01T12:08:33.932Z,76.70
2022-09-01T12:11:31.355Z,76.90
2022-09-01T12:14:10.487Z,76.40
2022-09-01T12:16:42.315Z,77.40
2022-09-01T12:19:25.201Z,77.90
2022-09-01T12:22:04.813Z,77.10
2022-09-01T12:24:37.007Z,76.80
2022-09-01T12:27:04.954Z,76.40
2022-09-01T12:29:33.158Z,76.40
2022-09-01T12:32:01.562Z,74.10
2022-09-01T12:35:05.638Z,75.20
2022-09-01T12:37:36.766Z,73.90
2022-09-01T12:40:04.354Z,71.20
2022-09-01T12:42:38.985Z,71.20
2022-09-01T12:45:10.460Z,70.40
2022-09-01T12:47:37.327Z,69.10
2022-09-01T12:50:16.594Z,66.90
2022-09-01T12:52:53.265Z,66.30
2022-09-01T12:55:49.221Z,66.60
2022-09-01T12:58:25.674Z,66.90
2022-09-01T13:01:16.011Z,67.10
2022-09-01T13:04:10.616Z,66.90
2022-09-01T13:06:38.147Z,67.30
2022-09-01T13:09:05.261Z,66.60
2022-09-01T13:12:06.010Z,65.30
2022-09-01T13:14:19.114Z,65.70
2022-09-01T13:16:46.687Z,65.10
2022-09-01T13:19:17.968Z,64.90
2022-09-01T13:21:48.962Z,65.30
2022-09-01T13:24:15.863Z,65.30
2022-09-01T13:27:20.281Z,64.10
2022-09-01T13:29:30.072Z,64.30
2022-09-01T13:34:44.336Z,64.50
2022-09-01T13:37:11.254Z,64.30
2022-09-01T13:39:38.157Z,64.90
2022-09-01T13:42:05.235Z,64.00
2022-09-01T13:44:32.146Z,64.30
2022-09-01T13:46:59.534Z,64.40
2022-09-01T13:49:44.463Z,63.40
2022-09-01T13:52:13.491Z,63.70
2022-09-01T13:54:40.600Z,62.80
2022-09-01T13:57:07.800Z,64.10
2022-09-01T13:59:34.753Z,65.20
2022-09-01T14:02:01.777Z,64.90
2022-09-01T14:04:29.120Z,66.20
2022-09-01T14:06:56.492Z,66.40
2022-09-01T14:09:23.448Z,65.70
2022-09-01T14:11:54.508Z,65.50
2022-09-01T14:14:22.059Z,63.90
2022-09-01T14:16:49.338Z,63.70
2022-09-01T14:19:16.468Z,64.20
2022-09-01T14:21:44.398Z,63.60
2022-09-01T14:24:13.028Z,62.70
2022-09-01T14:26:42.290Z,63.10
2022-09-01T14:29:09.470Z,63.40
2022-09-01T14:31:37.774Z,63.30
2022-09-01T14:34:06.703Z,63.20
2022-09-01T14:36:33.767Z,63.00
2022-09-01T14:39:00.668Z,63.50
2022-09-01T14:41:27.588Z,64.10
2022-09-01T14:44:02.831Z,64.30
2022-09-01T14:46:33.836Z,62.50
2022-09-01T14:49:02.153Z,63.10
2022-09-01T14:54:18.497Z,63.30
2022-09-01T14:57:28.672Z,62.30
2022-09-01T14:59:33.376Z,61.00
2022-09-01T15:02:00.408Z,61.10
2022-09-01T15:04:27.943Z,61.10
2022-09-01T15:06:55.605Z,62.20
2022-09-01T15:09:22.983Z,61.80
2022-09-01T15:11:49.977Z,62.10
2022-09-01T15:14:16.909Z,61.80
2022-09-01T15:16:43.966Z,61.10
2022-09-01T15:19:13.269Z,61.20
2022-09-01T15:21:43.489Z,61.40
2022-09-01T15:24:11.175Z,61.10
2022-09-01T15:26:40.870Z,61.00
2022-09-01T15:29:13.200Z,61.50
2022-09-01T15:31:40.442Z,62.00
2022-09-01T15:34:07.550Z,62.60
2022-09-01T15:36:40.053Z,62.80
2022-09-01T15:39:08.300Z,64.20
2022-09-01T15:41:36.268Z,64.30
2022-09-01T15:44:06.968Z,64.90
2022-09-01T15:46:36.263Z,65.60
2022-09-01T15:49:07.452Z,65.80
2022-09-01T15:51:43.268Z,65.60
2022-09-01T15:54:17.443Z,64.80
2022-09-01T15:56:46.669Z,64.90
2022-09-01T15:59:14.518Z,65.00
2022-09-01T16:01:45.341Z,65.00
2022-09-01T16:04:20.008Z,65.50
2022-09-01T16:06:49.452Z,65.10
2022-09-01T16:09:18.399Z,65.70
2022-09-01T16:11:45.635Z,65.40
2022-09-01T16:14:12.851Z,66.00
2022-09-01T16:17:07.560Z,65.80
2022-09-01T16:20:18.723Z,66.30
2022-09-01T16:22:56.349Z,66.10
2022-09-01T16:25:31.510Z,66.30
2022-09-01T16:28:10.866Z,66.60
2022-09-01T16:30:38.892Z,66.80
2022-09-01T16:33:19.776Z,65.90
2022-09-01T16:36:14.488Z,66.20
2022-09-01T16:39:03.736Z,65.70
2022-09-01T16:42:03.273Z,65.90
2022-09-01T16:45:05.533Z,66.40
2022-09-01T16:48:06.708Z,66.80
2022-09-01T16:50:39.595Z,67.00
2022-09-01T16:53:30.991Z,66.70
2022-09-01T16:56:07.913Z,67.00
2022-09-01T16:58:46.411Z,66.60
2022-09-01T17:01:41.645Z,65.60
2022-09-01T17:04:50.298Z,65.20
2022-09-01T17:07:38.850Z,65.20
2022-09-01T17:10:20.651Z,64.30
2022-09-01T17:12:56.209Z,63.60
2022-09-01T17:15:41.119Z,62.60
2022-09-01T17:18:41.078Z,63.50
2022-09-01T17:21:21.530Z,62.50
2022-09-01T17:24:31.989Z,62.70
2022-09-01T17:27:07.826Z,63.10
2022-09-01T17:29:44.896Z,63.10
2022-09-01T17:32:52.172Z,63.90
2022-09-01T17:35:53.085Z,64.60
2022-09-01T17:38:54.123Z,65.30
2022-09-01T17:41:47.968Z,66.50
2022-09-01T17:44:56.169Z,66.50
2022-09-01T17:48:11.724Z,67.00
2022-09-01T17:51:02.341Z,67.70
2022-09-01T17:54:16.934Z,68.10
2022-09-01T17:57:09.305Z,69.20
2022-09-01T17:59:48.460Z,69.60
2022-09-01T18:02:52.223Z,69.90
2022-09-01T18:05:24.683Z,70.20
2022-09-01T18:08:36.476Z,70.70
2022-09-01T18:11:13.868Z,71.70
2022-09-01T18:14:09.255Z,72.20
2022-09-01T18:16:58.796Z,72.70
2022-09-01T18:19:35.980Z,72.10
2022-09-01T18:22:09.496Z,72.20
2022-09-01T18:24:54.439Z,73.30
2022-09-01T18:27:24.328Z,73.60
2022-09-01T18:29:53.183Z,73.40
2022-09-01T18:32:46.175Z,73.30
2022-09-01T18:35:13.364Z,74.80
2022-09-01T18:38:25.694Z,74.20
2022-09-01T18:41:39.388Z,74.20
2022-09-01T18:44:36.849Z,75.30
2022-09-01T18:47:10.510Z,75.30
2022-09-01T18:49:55.089Z,75.80
2022-09-01T18:52:47.688Z,75.10
2022-09-01T18:55:38.931Z,76.20
2022-09-01T18:58:26.444Z,75.70
2022-09-01T19:01:05.898Z,75.90
2022-09-01T19:03:49.007Z,76.90
2022-09-01T19:06:34.747Z,78.00
2022-09-01T19:09:22.687Z,77.20
2022-09-01T19:11:49.476Z,77.10
2022-09-01T19:14:31.540Z,76.90
2022-09-01T19:17:32.740Z,77.80
2022-09-01T19:20:04.983Z,78.20
2022-09-01T19:22:56.329Z,77.40
2022-09-01T19:25:33.895Z,77.30
2022-09-01T19:28:44.333Z,77.30
2022-09-01T19:31:32.456Z,77.90
2022-09-01T19:34:19.447Z,77.90
2022-09-01T19:36:59.707Z,77.90
2022-09-01T19:39:40.558Z,77.90
2022-09-01T19:42:53.229Z,78.40
2022-09-01T19:45:38.324Z,79.20
2022-09-01T19:48:18.040Z,79.10
2022-09-01T19:50:54.055Z,79.30
2022-09-01T19:54:10.674Z,79.40
2022-09-01T19:56:57.650Z,80.00
2022-09-01T19:59:33.966Z,79.60
2022-09-01T20:02:10.469Z,79.70
2022-09-01T20:04:47.854Z,80.00
2022-09-01T20:07:39.764Z,80.40
2022-09-01T20:10:37.037Z,81.00
2022-09-01T20:13:51.185Z,81.30
2022-09-01T20:16:33.146Z,81.60
2022-09-01T20:19:11.436Z,81.60
2022-09-01T20:21:45.931Z,81.80
2022-09-01T20:24:38.228Z,82.00
2022-09-01T20:27:48.048Z,82.40
2022-09-01T20:30:24.242Z,82.50
2022-09-01T20:33:03.455Z,82.10
2022-09-01T20:35:39.930Z,82.50
2022-09-01T20:38:46.176Z,82.40
2022-09-01T20:41:42.309Z,82.70
2022-09-01T20:44:24.736Z,83.00
2022-09-01T20:46:52.686Z,83.30
2022-09-01T20:49:19.810Z,83.40
2022-09-01T20:52:10.219Z,83.70
2022-09-01T20:55:13.047Z,84.60
2022-09-01T20:58:06.641Z,85.10
2022-09-01T21:00:47.043Z,84.50
2022-09-01T21:03:40.013Z,85.00
2022-09-01T21:06:33.176Z,84.80
2022-09-01T21:09:33.837Z,84.70
2022-09-01T21:12:10.289Z,85.10
2022-09-01T21:14:49.203Z,84.90
2022-09-01T21:18:08.031Z,85.00
2022-09-01T21:21:11.072Z,85.30
2022-09-01T21:23:37.979Z,85.60
2022-09-01T21:26:05.602Z,85.10
2022-09-01T21:28:34.090Z,85.40
2022-09-01T21:31:02.144Z,85.70
2022-09-01T21:33:32.104Z,85.70
2022-09-01T21:36:00.540Z,86.00
2022-09-01T21:38:29.426Z,86.10
2022-09-01T21:40:59.180Z,86.20
2022-09-01T21:43:32.535Z,86.30
2022-09-01T21:46:00.914Z,86.60
2022-09-01T21:48:28.531Z,86.40
2022-09-01T21:50:55.426Z,86.50
2022-09-01T21:53:22.412Z,86.60
2022-09-01T21:55:49.756Z,87.10
2022-09-01T21:58:16.691Z,87.20
2022-09-01T22:00:44.511Z,87.20
2022-09-01T22:03:12.482Z,87.30
2022-09-01T22:05:42.259Z,87.40
2022-09-01T22:08:12.202Z,87.50
2022-09-01T22:10:49.345Z,87.60
2022-09-01T22:13:18.182Z,87.90
2022-09-01T22:15:53.020Z,87.70
2022-09-01T22:18:21.630Z,89.20
2022-09-01T22:20:48.840Z,88.30
2022-09-01T22:23:16.860Z,88.20
2022-09-01T22:25:46.569Z,88.30
2022-09-01T22:28:14.048Z,89.50
2022-09-01T22:30:49.323Z,88.50
2022-09-01T22:33:16.992Z,89.00
2022-09-01T22:35:47.468Z,88.70
2022-09-01T22:38:15.771Z,89.10
2022-09-01T22:40:51.457Z,89.00
2022-09-01T22:43:19.252Z,89.10
2022-09-01T22:45:48.210Z,88.80
2022-09-01T22:48:18.236Z,89.10
2022-09-01T22:50:46.668Z,89.10
2022-09-01T22:53:15.333Z,89.10
2022-09-01T22:55:45.775Z,89.30
2022-09-01T22:58:13.648Z,89.40
2022-09-01T23:00:47.794Z,89.40
2022-09-01T23:03:15.445Z,89.80
2022-09-01T23:05:44.000Z,89.70
2022-09-01T23:08:11.557Z,90.00
2022-09-01T23:10:38.490Z,90.10
2022-09-01T23:13:05.684Z,90.00
2022-09-01T23:15:33.470Z,90.00
2022-09-01T23:18:00.498Z,90.10
2022-09-01T23:20:27.683Z,90.10
2022-09-01T23:22:54.655Z,90.10
2022-09-01T23:25:21.607Z,90.20
2022-09-01T23:27:48.625Z,90.50
2022-09-01T23:30:16.188Z,90.40
2022-09-01T23:32:43.639Z,90.40
2022-09-01T23:35:10.918Z,90.40
2022-09-01T23:37:37.917Z,90.40
2022-09-01T23:40:07.871Z,90.40
2022-09-01T23:42:35.088Z,90.40
2022-09-01T23:45:02.036Z,90.50
2022-09-01T23:47:31.012Z,90.60
2022-09-01T23:49:57.975Z,90.60
2022-09-01T23:52:25.284Z,90.50
2022-09-01T23:54:52.188Z,90.70
2022-09-01T23:57:19.138Z,90.60
2022-09-01T23:59:46.160Z,90.70
